Terminal Aerodrome Forecast
Issued by NWS

Home | Current Version | Previous Version | Text Only | Print | Product List | Glossary On
Versions: 1 2 3 4 5 6 7 8 9 10 11 12 13 14 15 16 17
180
FTAK31 PAJN 020708 AAA
TAFASI
TAF AMD
PASI 020708Z 0207/0306 VRB04KT 6SM -RA BR FEW010 BKN035 OVC050
      TEMPO 0207/0210 15010KT 3SM RA BR BKN003 BKN010 OVC020
     FM021000 12015G25KT 3SM RA BR SCT004 BKN010 OVC030
      WS020/18035KT
     FM021500 21010KT 4SM -RA BR SCT010 OVC025
     FM022100 24010KT P6SM VCSH SCT025 BKN040 BKN060=

USA.gov is the U.S. government's official web portal to all federal, state and local government web resources and services.